Time;durP1;ratioP1;P1;durP2;ratioP2;P2;SDS_P1;SDS_P2;PMS_P1;PMS_P2;Temp;Humidity;BMP_temperature;BMP_pressure;BME280_temperature;BME280_humidity;BME280_pressure;Samples;Min_cycle;Max_cycle;Signal;HPM_P1;HPM_P2
2022/09/09 00:02:10;;;;;;;5.45;4.43;;;16.70;69.90;;;;;;4917719;29;20140;-68
2022/09/09 00:04:37;;;;;;;4.45;2.50;;;16.70;69.70;;;;;;4930566;29;20131;-69
2022/09/09 00:07:45;;;;;;;4.40;2.83;;;16.70;69.50;;;;;;4920401;29;20048;-69
2022/09/09 00:10:20;;;;;;;3.58;2.63;;;16.70;69.80;;;;;;4925971;29;20143;-69
2022/09/09 00:13:05;;;;;;;3.30;2.47;;;16.70;69.40;;;;;;4935876;29;20361;-68
2022/09/09 00:15:42;;;;;;;4.75;2.63;;;16.70;69.40;;;;;;4918780;29;20103;-68
2022/09/09 00:18:11;;;;;;;8.15;4.47;;;16.70;69.30;;;;;;4953344;28;20039;-68
2022/09/09 00:20:57;;;;;;;4.70;3.50;;;16.70;69.30;;;;;;4933816;29;20039;-68
2022/09/09 00:23:33;;;;;;;3.05;2.63;;;16.70;69.20;;;;;;4925783;29;20048;-68
2022/09/09 00:26:12;;;;;;;6.15;4.10;;;16.70;69.10;;;;;;4930408;29;20053;-68
2022/09/09 00:28:54;;;;;;;8.40;4.82;;;16.70;69.20;;;;;;4926275;29;20051;-68
2022/09/09 00:31:27;;;;;;;4.07;3.67;;;16.70;69.00;;;;;;4931099;29;20080;-68
2022/09/09 00:33:54;;;;;;;4.43;3.70;;;16.70;68.90;;;;;;4930968;29;20054;-68
2022/09/09 00:36:25;;;;;;;7.88;4.97;;;16.70;68.90;;;;;;4923198;29;20067;-68
2022/09/09 00:39:00;;;;;;;6.13;4.10;;;16.70;68.90;;;;;;4933518;29;20469;-68
2022/09/09 00:42:09;;;;;;;4.63;3.20;;;16.70;69.00;;;;;;4924056;29;20044;-68
2022/09/09 00:44:37;;;;;;;8.93;6.45;;;16.60;69.00;;;;;;4923682;29;20106;-68
2022/09/09 00:47:40;;;;;;;11.30;5.63;;;16.60;69.30;;;;;;4947642;29;20082;-68
2022/09/09 00:50:11;;;;;;;10.05;5.93;;;16.60;69.30;;;;;;4927660;29;20118;-68
2022/09/09 00:52:51;;;;;;;7.63;5.35;;;16.60;69.40;;;;;;4933069;29;20126;-68
2022/09/09 00:55:32;;;;;;;7.15;5.47;;;16.60;69.50;;;;;;4936064;29;20052;-68
2022/09/09 00:57:58;;;;;;;10.27;6.60;;;16.50;69.60;;;;;;4919125;29;20059;-68
2022/09/09 01:00:31;;;;;;;6.07;4.57;;;16.40;69.70;;;;;;4918667;29;20059;-68
2022/09/09 01:03:07;;;;;;;7.63;5.60;;;16.40;70.00;;;;;;4935994;29;20047;-68
2022/09/09 01:05:32;;;;;;;8.15;6.18;;;16.40;70.10;;;;;;4932492;29;20148;-68
2022/09/09 01:08:02;;;;;;;6.63;5.97;;;16.40;70.20;;;;;;4920391;29;20262;-68
2022/09/09 01:10:38;;;;;;;8.52;5.90;;;16.40;70.30;;;;;;4924486;29;20047;-68
2022/09/09 01:13:13;;;;;;;7.10;6.30;;;16.30;70.30;;;;;;4928007;29;20047;-69
2022/09/09 01:15:41;;;;;;;10.23;6.32;;;16.30;70.40;;;;;;4904976;29;20488;-68
2022/09/09 01:18:12;;;;;;;6.72;5.60;;;16.30;70.90;;;;;;4944200;28;20048;-68
2022/09/09 01:20:53;;;;;;;9.82;7.00;;;16.20;70.50;;;;;;4929189;29;20046;-68
2022/09/09 01:23:54;;;;;;;7.47;6.70;;;16.20;70.70;;;;;;4918213;29;20500;-69
2022/09/09 01:26:19;;;;;;;8.30;5.70;;;16.20;70.80;;;;;;4922749;29;20046;-69
2022/09/09 01:28:52;;;;;;;11.23;7.07;;;16.10;70.90;;;;;;4944281;29;20052;-67
2022/09/09 01:31:22;;;;;;;8.13;7.30;;;16.00;71.20;;;;;;4934023;29;20071;-68
2022/09/09 01:33:49;;;;;;;10.93;8.57;;;16.00;71.50;;;;;;4921139;29;20048;-68
2022/09/09 01:36:17;;;;;;;9.30;6.78;;;16.00;71.60;;;;;;4932876;29;20137;-68
2022/09/09 01:38:43;;;;;;;10.35;7.40;;;15.90;71.80;;;;;;4918843;29;20491;-68
2022/09/09 01:41:08;;;;;;;9.90;8.02;;;15.90;71.90;;;;;;4948110;29;20044;-68
2022/09/09 01:43:34;;;;;;;10.70;7.35;;;15.90;72.20;;;;;;4931436;29;20043;-68
2022/09/09 01:46:02;;;;;;;14.02;9.13;;;15.80;72.40;;;;;;4931141;29;20079;-68
2022/09/09 01:48:29;;;;;;;8.82;7.93;;;15.80;72.60;;;;;;4908365;29;20083;-68
2022/09/09 01:50:54;;;;;;;8.57;7.68;;;15.80;72.70;;;;;;4932207;29;20059;-68
2022/09/09 01:53:21;;;;;;;8.98;7.72;;;15.70;72.80;;;;;;4919285;29;20051;-68
2022/09/09 01:56:08;;;;;;;9.73;8.10;;;15.70;73.50;;;;;;4948423;28;20079;-68
2022/09/09 01:58:47;;;;;;;10.45;7.60;;;15.70;73.40;;;;;;4918040;29;20114;-68
2022/09/09 02:01:24;;;;;;;10.98;7.85;;;15.70;73.60;;;;;;4928373;29;20044;-68
2022/09/09 02:03:57;;;;;;;9.13;7.55;;;15.70;73.70;;;;;;4929855;29;20052;-68
2022/09/09 02:06:25;;;;;;;9.07;7.63;;;15.70;73.90;;;;;;4922993;29;20044;-68
2022/09/09 02:08:57;;;;;;;8.98;7.40;;;15.70;74.00;;;;;;4927240;29;20052;-68
2022/09/09 02:11:25;;;;;;;10.43;7.60;;;15.70;74.30;;;;;;4923388;29;20106;-68
2022/09/09 02:14:08;;;;;;;8.63;6.72;;;15.60;74.40;;;;;;4929943;29;20123;-68
2022/09/09 02:16:42;;;;;;;10.00;7.15;;;15.60;74.60;;;;;;4916753;29;20377;-69
2022/09/09 02:19:27;;;;;;;10.55;7.15;;;15.60;74.80;;;;;;4933383;29;20047;-68
2022/09/09 02:21:55;;;;;;;10.32;7.15;;;15.70;75.10;;;;;;4931269;29;20555;-68
2022/09/09 02:24:22;;;;;;;6.65;5.88;;;15.60;75.00;;;;;;4928900;29;20039;-68
2022/09/09 02:26:52;;;;;;;10.43;6.80;;;15.60;75.10;;;;;;4922179;29;20051;-69
2022/09/09 02:29:31;;;;;;;10.95;6.10;;;15.60;75.30;;;;;;4922776;29;20044;-68
2022/09/09 02:32:03;;;;;;;8.82;6.40;;;15.60;75.50;;;;;;4918483;29;20036;-68
2022/09/09 02:34:30;;;;;;;11.85;7.45;;;15.60;75.60;;;;;;4921195;29;20048;-68
2022/09/09 02:36:59;;;;;;;11.43;7.40;;;15.60;75.60;;;;;;4927582;29;20047;-69
2022/09/09 02:39:25;;;;;;;9.80;7.10;;;15.70;75.70;;;;;;4919087;29;20548;-68
2022/09/09 02:41:51;;;;;;;7.78;6.97;;;15.60;75.70;;;;;;4918411;29;20135;-68
2022/09/09 02:44:18;;;;;;;6.65;5.28;;;15.70;75.80;;;;;;4932346;29;20044;-68
2022/09/09 02:47:05;;;;;;;9.00;6.80;;;15.70;75.90;;;;;;4924396;29;20555;-69
2022/09/09 02:49:59;;;;;;;7.70;6.82;;;15.70;75.90;;;;;;4937694;29;20039;-68
2022/09/09 02:52:58;;;;;;;7.03;5.30;;;15.70;75.90;;;;;;4922033;29;20039;-69
2022/09/09 02:55:27;;;;;;;9.55;6.88;;;15.70;75.90;;;;;;4923749;29;20059;-68
2022/09/09 02:57:55;;;;;;;9.40;7.40;;;15.70;75.80;;;;;;4933132;29;20434;-68
2022/09/09 03:00:27;;;;;;;7.90;5.75;;;15.70;75.80;;;;;;4936579;29;20074;-68
2022/09/09 03:02:54;;;;;;;10.20;6.80;;;15.70;75.90;;;;;;4931698;29;20488;-68
2022/09/09 03:05:20;;;;;;;9.07;6.78;;;15.70;75.90;;;;;;4928614;29;20392;-68
2022/09/09 03:07:47;;;;;;;10.38;6.57;;;15.70;75.90;;;;;;4914874;29;20043;-68
2022/09/09 03:10:13;;;;;;;10.38;7.38;;;15.70;75.90;;;;;;4925452;29;20043;-68
2022/09/09 03:12:39;;;;;;;10.02;6.68;;;15.80;76.00;;;;;;4915677;29;20079;-68
2022/09/09 03:15:06;;;;;;;10.55;7.00;;;15.80;76.00;;;;;;4916790;29;20079;-68
2022/09/09 03:17:31;;;;;;;10.38;6.40;;;15.80;76.10;;;;;;4919948;29;20127;-68
2022/09/09 03:19:58;;;;;;;8.80;7.15;;;15.80;76.00;;;;;;4930269;29;20052;-68
2022/09/09 03:22:25;;;;;;;7.70;6.60;;;15.80;76.00;;;;;;4920004;29;20091;-68
2022/09/09 03:24:51;;;;;;;9.57;6.65;;;15.80;76.00;;;;;;4933048;29;20075;-68
2022/09/09 03:27:19;;;;;;;8.90;6.28;;;15.80;76.00;;;;;;4934933;29;20047;-68
2022/09/09 03:29:45;;;;;;;7.38;6.32;;;15.80;76.00;;;;;;4923521;29;20118;-68
2022/09/09 03:32:12;;;;;;;13.73;6.78;;;15.80;76.10;;;;;;4919468;29;20048;-68
2022/09/09 03:34:40;;;;;;;8.45;6.82;;;15.80;76.10;;;;;;4916519;29;20044;-67
2022/09/09 03:37:06;;;;;;;9.70;6.05;;;15.80;76.10;;;;;;4925905;29;20052;-68
2022/09/09 03:39:32;;;;;;;7.93;6.45;;;15.80;76.00;;;;;;4921273;29;20047;-68
2022/09/09 03:41:57;;;;;;;7.68;6.07;;;15.70;76.00;;;;;;4933262;29;20126;-67
2022/09/09 03:44:23;;;;;;;9.75;6.65;;;15.80;76.00;;;;;;4916832;29;20048;-68
2022/09/09 03:46:49;;;;;;;8.10;7.03;;;15.80;76.00;;;;;;4931866;29;20552;-68
2022/09/09 03:49:15;;;;;;;8.23;6.55;;;15.80;76.00;;;;;;4914480;29;20464;-68
2022/09/09 03:51:41;;;;;;;8.85;6.15;;;15.80;75.90;;;;;;4935940;29;20044;-68
2022/09/09 03:54:09;;;;;;;7.82;6.22;;;15.80;76.00;;;;;;4935258;29;20143;-68
2022/09/09 03:56:36;;;;;;;7.65;6.88;;;15.70;75.90;;;;;;4936789;29;20047;-68
2022/09/09 03:59:02;;;;;;;8.45;6.45;;;15.70;75.90;;;;;;4931898;29;20044;-68
2022/09/09 04:01:28;;;;;;;9.68;6.70;;;15.70;75.80;;;;;;4921898;29;20044;-68
2022/09/09 04:03:57;;;;;;;6.13;5.18;;;15.70;75.90;;;;;;4919155;29;20511;-68
2022/09/09 04:06:24;;;;;;;9.73;6.63;;;15.70;76.00;;;;;;4934172;29;20095;-68
2022/09/09 04:08:52;;;;;;;5.90;5.30;;;15.70;76.10;;;;;;4926043;29;20044;-67
2022/09/09 04:11:18;;;;;;;8.50;6.40;;;15.60;76.00;;;;;;4931394;29;20075;-67
2022/09/09 04:13:44;;;;;;;7.78;6.22;;;15.70;76.10;;;;;;4923599;29;20523;-69
2022/09/09 04:16:11;;;;;;;7.68;5.97;;;15.70;76.10;;;;;;4927813;29;20432;-68
2022/09/09 04:18:37;;;;;;;6.80;5.85;;;15.70;76.10;;;;;;4928595;29;20472;-67
2022/09/09 04:21:04;;;;;;;6.45;5.72;;;15.70;76.10;;;;;;4933885;29;20028;-67
2022/09/09 04:23:30;;;;;;;7.72;5.30;;;15.60;76.00;;;;;;4930883;29;20103;-68
2022/09/09 04:25:57;;;;;;;8.45;6.40;;;15.60;75.90;;;;;;4936361;29;20043;-68
2022/09/09 04:28:26;;;;;;;8.77;6.28;;;15.60;75.90;;;;;;4932647;29;20083;-68
2022/09/09 04:30:52;;;;;;;6.47;5.70;;;15.60;76.00;;;;;;4932358;29;20059;-68
2022/09/09 04:33:18;;;;;;;8.20;6.00;;;15.60;75.90;;;;;;4937184;29;20059;-68
2022/09/09 04:35:49;;;;;;;9.25;6.43;;;15.60;75.90;;;;;;4936776;29;20050;-68
2022/09/09 04:38:16;;;;;;;7.80;6.63;;;15.60;75.90;;;;;;4923272;29;20048;-68
2022/09/09 04:40:43;;;;;;;11.20;6.60;;;15.50;75.80;;;;;;4936634;29;20046;-68
2022/09/09 04:43:10;;;;;;;9.32;5.97;;;15.50;75.90;;;;;;4932477;29;20043;-68
2022/09/09 04:45:36;;;;;;;8.73;5.88;;;15.50;75.90;;;;;;4930125;29;20044;-68
2022/09/09 04:48:02;;;;;;;8.50;6.43;;;15.50;75.80;;;;;;4927989;29;20051;-68
2022/09/09 04:50:28;;;;;;;10.25;7.57;;;15.50;75.90;;;;;;4924398;29;20202;-69
2022/09/09 04:52:54;;;;;;;11.35;7.75;;;15.50;75.90;;;;;;4919056;29;20048;-68
2022/09/09 04:55:19;;;;;;;11.00;7.78;;;15.50;75.90;;;;;;4931096;29;20062;-68
2022/09/09 04:57:45;;;;;;;9.73;8.13;;;15.40;76.00;;;;;;4934617;29;20038;-68
2022/09/09 05:00:13;;;;;;;8.98;8.07;;;15.40;76.00;;;;;;4917814;29;20080;-68
2022/09/09 05:02:39;;;;;;;10.13;9.07;;;15.40;76.10;;;;;;4929383;29;20039;-68
2022/09/09 05:05:06;;;;;;;12.23;9.88;;;15.40;76.10;;;;;;4929000;29;20103;-68
2022/09/09 05:07:32;;;;;;;11.27;9.63;;;15.30;76.00;;;;;;4935535;29;20055;-68
2022/09/09 05:09:57;;;;;;;14.18;10.38;;;15.30;76.00;;;;;;4917685;29;20040;-69
2022/09/09 05:12:25;;;;;;;8.88;7.97;;;15.30;76.60;;;;;;4926913;29;20039;-68
2022/09/09 05:14:51;;;;;;;11.95;9.65;;;15.30;76.20;;;;;;4916788;29;20202;-68
2022/09/09 05:17:17;;;;;;;10.95;9.80;;;15.20;76.30;;;;;;4928907;29;20107;-68
2022/09/09 05:19:43;;;;;;;12.25;9.70;;;15.30;76.40;;;;;;4937330;29;20044;-68
2022/09/09 05:22:11;;;;;;;12.57;9.70;;;15.20;76.40;;;;;;4931593;29;20064;-68
2022/09/09 05:24:37;;;;;;;12.20;10.32;;;15.20;76.40;;;;;;4917715;29;20063;-68
2022/09/09 05:27:05;;;;;;;11.13;9.85;;;15.20;76.30;;;;;;4931722;29;20123;-68
2022/09/09 05:29:33;;;;;;;9.90;8.90;;;15.20;76.30;;;;;;4932082;29;20055;-69
2022/09/09 05:31:59;;;;;;;12.73;9.65;;;15.20;76.30;;;;;;4918535;29;20040;-68
2022/09/09 05:34:24;;;;;;;10.63;8.70;;;15.20;76.30;;;;;;4931473;29;20455;-68
2022/09/09 05:36:52;;;;;;;11.10;8.77;;;15.10;76.20;;;;;;4927013;29;20128;-69
2022/09/09 05:39:18;;;;;;;10.48;9.02;;;15.10;76.20;;;;;;4929160;29;20050;-69
2022/09/09 05:41:43;;;;;;;9.98;8.48;;;15.10;76.30;;;;;;4922940;29;20105;-70
2022/09/09 05:44:09;;;;;;;12.32;8.60;;;15.10;76.40;;;;;;4918211;29;20055;-69
2022/09/09 05:46:35;;;;;;;10.00;8.85;;;15.10;76.80;;;;;;4929956;29;20047;-69
2022/09/09 05:49:02;;;;;;;11.88;8.38;;;15.10;76.50;;;;;;4922180;29;20373;-69
2022/09/09 05:51:29;;;;;;;9.88;8.07;;;15.00;76.40;;;;;;4932402;29;20043;-69
2022/09/09 05:53:58;;;;;;;10.15;8.65;;;15.00;76.40;;;;;;4939383;29;20076;-69
2022/09/09 05:56:26;;;;;;;9.93;8.00;;;15.00;76.50;;;;;;4936182;29;20471;-68
2022/09/09 05:58:56;;;;;;;9.85;7.78;;;15.00;76.50;;;;;;4924543;28;20051;-68
2022/09/09 06:01:30;;;;;;;11.00;8.85;;;15.00;76.60;;;;;;4923901;29;20499;-68
2022/09/09 06:03:56;;;;;;;10.73;8.52;;;15.00;76.70;;;;;;4934800;29;20162;-68
2022/09/09 06:06:25;;;;;;;10.77;8.93;;;15.00;76.70;;;;;;4933916;29;20078;-68
2022/09/09 06:08:53;;;;;;;8.65;7.47;;;14.90;76.70;;;;;;4932050;29;20187;-68
2022/09/09 06:11:21;;;;;;;8.40;7.35;;;15.00;76.80;;;;;;4925753;29;20515;-69
2022/09/09 06:13:51;;;;;;;9.77;7.30;;;14.90;76.80;;;;;;4951769;28;20074;-68
2022/09/09 06:16:19;;;;;;;9.00;7.30;;;14.90;76.80;;;;;;4925310;29;20095;-69
2022/09/09 06:18:45;;;;;;;12.07;7.65;;;14.90;76.90;;;;;;4922228;29;20528;-69
2022/09/09 06:21:32;;;;;;;8.93;7.53;;;14.90;76.70;;;;;;4933180;29;20138;-69
2022/09/09 06:23:59;;;;;;;10.48;8.57;;;14.90;76.70;;;;;;4925602;29;20047;-70
2022/09/09 06:26:27;;;;;;;10.80;8.52;;;14.90;76.80;;;;;;4924105;29;20051;-69
2022/09/09 06:28:54;;;;;;;10.18;7.93;;;15.00;76.90;;;;;;4932825;29;20047;-68
2022/09/09 06:31:23;;;;;;;9.98;7.57;;;14.90;76.90;;;;;;4948289;28;20050;-69
2022/09/09 06:33:50;;;;;;;10.00;7.88;;;15.00;77.00;;;;;;4926891;29;20048;-69
2022/09/09 06:36:22;;;;;;;8.73;7.65;;;15.00;77.10;;;;;;4927883;29;20099;-69
2022/09/09 06:38:47;;;;;;;9.25;7.82;;;15.00;77.10;;;;;;4916620;29;20044;-69
2022/09/09 06:41:15;;;;;;;10.35;7.88;;;15.00;77.10;;;;;;4915930;29;20385;-68
2022/09/09 06:43:41;;;;;;;8.88;7.70;;;15.00;77.20;;;;;;4920032;29;20441;-69
2022/09/09 06:46:11;;;;;;;10.27;8.15;;;15.00;77.20;;;;;;4930437;29;20051;-69
2022/09/09 06:48:40;;;;;;;9.80;8.30;;;15.00;77.30;;;;;;4925348;29;20039;-69
2022/09/09 06:51:10;;;;;;;11.13;7.70;;;15.10;77.40;;;;;;4934538;29;20043;-69
2022/09/09 06:53:38;;;;;;;10.10;7.72;;;15.10;77.60;;;;;;4932839;29;20044;-69
2022/09/09 06:56:09;;;;;;;8.85;7.53;;;15.10;77.50;;;;;;4930921;29;20119;-69
2022/09/09 06:58:36;;;;;;;12.25;7.93;;;15.10;77.60;;;;;;4925754;29;20119;-69
2022/09/09 07:01:05;;;;;;;8.32;7.35;;;15.10;77.60;;;;;;4922732;29;20492;-70
2022/09/09 07:03:32;;;;;;;9.38;7.80;;;15.20;77.80;;;;;;4930452;29;20081;-69
2022/09/09 07:05:59;;;;;;;14.30;7.70;;;15.30;77.80;;;;;;4931725;29;20047;-69
2022/09/09 07:08:25;;;;;;;9.52;6.85;;;15.30;77.70;;;;;;4920925;29;20048;-69
2022/09/09 07:10:53;;;;;;;11.30;8.68;;;15.30;77.70;;;;;;4930063;29;20039;-69
2022/09/09 07:13:25;;;;;;;9.85;7.47;;;15.30;77.80;;;;;;4925851;29;20487;-69
2022/09/09 07:15:51;;;;;;;9.80;7.28;;;15.50;78.20;;;;;;4919604;29;20063;-69
2022/09/09 07:18:17;;;;;;;9.23;6.72;;;15.50;78.30;;;;;;4919026;29;20131;-69
2022/09/09 07:20:43;;;;;;;8.43;5.97;;;15.60;78.20;;;;;;4948653;29;20524;-69
2022/09/09 07:23:08;;;;;;;10.05;7.25;;;15.60;78.10;;;;;;4933513;29;20070;-69
2022/09/09 07:25:34;;;;;;;9.93;7.18;;;15.70;78.30;;;;;;4935613;29;20048;-69
2022/09/09 07:28:00;;;;;;;11.00;6.22;;;15.80;78.40;;;;;;4949765;28;20480;-70
2022/09/09 07:30:25;;;;;;;11.45;7.00;;;15.90;78.50;;;;;;4920521;29;20460;-69
2022/09/09 07:32:52;;;;;;;7.93;6.40;;;16.00;78.60;;;;;;4918121;29;20044;-69
2022/09/09 07:35:18;;;;;;;12.50;6.72;;;16.10;78.30;;;;;;4949393;29;20079;-69
2022/09/09 07:37:45;;;;;;;9.68;6.35;;;16.20;78.00;;;;;;4931060;29;20082;-69
2022/09/09 07:40:10;;;;;;;11.23;6.30;;;16.30;77.90;;;;;;4944057;29;20044;-72
2022/09/09 07:42:37;;;;;;;11.25;6.10;;;16.40;77.80;;;;;;4916323;29;20057;-69
2022/09/09 07:45:04;;;;;;;8.18;5.60;;;16.50;77.80;;;;;;4917295;29;20059;-69
2022/09/09 07:47:29;;;;;;;8.00;5.30;;;16.60;77.50;;;;;;4933643;29;20046;-69
2022/09/09 07:49:55;;;;;;;7.50;5.25;;;16.80;77.30;;;;;;4945152;29;20039;-69
2022/09/09 07:52:21;;;;;;;12.93;6.38;;;16.90;77.10;;;;;;4928234;29;20044;-69
2022/09/09 07:54:47;;;;;;;9.10;5.10;;;17.00;76.70;;;;;;4930118;29;20074;-69
2022/09/09 07:57:13;;;;;;;6.95;5.07;;;17.10;75.90;;;;;;4931029;29;20055;-69
2022/09/09 07:59:39;;;;;;;9.05;5.13;;;17.30;75.50;;;;;;4944803;29;20107;-69
2022/09/09 08:02:04;;;;;;;8.23;5.07;;;17.30;74.80;;;;;;4930573;29;20055;-69
2022/09/09 08:04:30;;;;;;;9.95;5.20;;;17.40;74.50;;;;;;4929980;29;20039;-69
2022/09/09 08:06:59;;;;;;;10.73;4.95;;;17.40;74.80;;;;;;4928201;29;20510;-69
2022/09/09 08:09:32;;;;;;;7.93;4.47;;;17.60;74.90;;;;;;4945797;29;20095;-70
2022/09/09 08:11:58;;;;;;;8.02;4.63;;;17.70;74.40;;;;;;4926838;29;20051;-69
2022/09/09 08:14:24;;;;;;;9.60;5.05;;;17.80;74.00;;;;;;4929899;29;20052;-69
2022/09/09 08:16:50;;;;;;;6.03;3.42;;;17.90;74.10;;;;;;4943095;28;20111;-69
2022/09/09 08:19:16;;;;;;;8.30;3.50;;;18.10;73.80;;;;;;4928807;29;20436;-69
2022/09/09 08:21:43;;;;;;;9.25;3.83;;;18.20;73.60;;;;;;4945150;29;20043;-69
2022/09/09 08:24:11;;;;;;;6.05;3.80;;;18.40;73.50;;;;;;4929294;29;20043;-69
2022/09/09 08:26:42;;;;;;;6.85;3.53;;;18.70;72.40;;;;;;4929076;29;20051;-69
2022/09/09 08:29:10;;;;;;;5.18;3.28;;;18.90;71.60;;;;;;4928693;29;20054;-69
2022/09/09 08:31:45;;;;;;;5.65;3.35;;;19.00;70.80;;;;;;4914157;29;20039;-69
2022/09/09 08:34:11;;;;;;;7.22;3.90;;;19.20;70.40;;;;;;4930985;29;20495;-70
2022/09/09 08:36:40;;;;;;;6.35;3.30;;;19.40;70.00;;;;;;4931900;29;20078;-70
2022/09/09 08:39:08;;;;;;;5.03;2.70;;;19.50;69.50;;;;;;4933164;29;20043;-70
2022/09/09 08:41:36;;;;;;;6.93;3.40;;;19.60;69.30;;;;;;4949765;29;20051;-69
2022/09/09 08:44:28;;;;;;;11.20;3.70;;;19.70;68.70;;;;;;4932513;29;20052;-69
2022/09/09 08:47:24;;;;;;;8.60;3.65;;;19.90;68.10;;;;;;4932918;29;20166;-69
2022/09/09 08:49:59;;;;;;;7.40;3.40;;;19.90;67.60;;;;;;4948496;29;20055;-69
2022/09/09 08:53:01;;;;;;;6.97;3.17;;;19.90;67.80;;;;;;4948337;28;20059;-69
2022/09/09 08:55:45;;;;;;;8.15;3.38;;;20.00;67.70;;;;;;4933258;29;20051;-69
2022/09/09 08:58:21;;;;;;;6.07;3.03;;;20.00;67.30;;;;;;4947406;28;20075;-69
2022/09/09 09:01:06;;;;;;;7.25;3.20;;;20.10;67.20;;;;;;4948858;28;20047;-69
2022/09/09 09:03:53;;;;;;;9.07;3.65;;;20.10;66.90;;;;;;4947445;29;20480;-69
2022/09/09 09:06:29;;;;;;;7.97;3.22;;;20.10;67.00;;;;;;4931636;29;20077;-69
2022/09/09 09:09:08;;;;;;;9.82;3.53;;;20.10;66.80;;;;;;4933238;29;20047;-69
2022/09/09 09:11:46;;;;;;;9.25;3.25;;;20.20;66.40;;;;;;4933144;29;20539;-69
2022/09/09 09:14:22;;;;;;;7.40;2.80;;;20.20;65.80;;;;;;4947716;29;20043;-69
2022/09/09 09:16:51;;;;;;;6.30;2.83;;;20.20;65.60;;;;;;4948887;28;20117;-69
2022/09/09 09:19:17;;;;;;;7.03;2.75;;;20.10;65.40;;;;;;4948002;28;20048;-69
2022/09/09 09:22:00;;;;;;;7.13;2.65;;;20.10;65.60;;;;;;4945154;29;20044;-69
2022/09/09 09:24:36;;;;;;;8.98;3.15;;;20.10;65.60;;;;;;4931259;29;20059;-69
2022/09/09 09:27:13;;;;;;;8.95;2.72;;;20.10;65.40;;;;;;4933255;29;20044;-69
2022/09/09 09:29:41;;;;;;;6.45;2.50;;;20.10;65.70;;;;;;4933736;29;20351;-71
2022/09/09 09:32:13;;;;;;;8.30;3.00;;;20.10;65.00;;;;;;4948995;28;20114;-70
2022/09/09 09:34:39;;;;;;;6.72;2.50;;;20.10;64.70;;;;;;4934148;29;20047;-70
2022/09/09 09:37:19;;;;;;;10.50;2.40;;;20.10;64.40;;;;;;4946937;28;20418;-70
2022/09/09 09:39:45;;;;;;;6.18;2.58;;;20.20;64.50;;;;;;4930932;29;20492;-70
2022/09/09 09:42:17;;;;;;;5.57;2.20;;;20.10;64.60;;;;;;4932499;29;20062;-70
2022/09/09 09:44:43;;;;;;;7.00;2.03;;;20.10;65.20;;;;;;4930991;29;20052;-70
2022/09/09 09:47:12;;;;;;;5.78;2.13;;;20.10;65.00;;;;;;4949099;28;20054;-70
2022/09/09 09:49:37;;;;;;;6.18;2.25;;;20.10;64.70;;;;;;4932467;29;20091;-70
2022/09/09 09:52:05;;;;;;;6.63;1.98;;;20.20;64.60;;;;;;4949373;28;20503;-71
2022/09/09 09:54:39;;;;;;;14.48;2.50;;;20.20;63.90;;;;;;4930818;29;20499;-70
2022/09/09 09:57:31;;;;;;;5.80;2.07;;;20.30;63.80;;;;;;4948247;28;20080;-70
2022/09/09 10:00:14;;;;;;;7.03;1.77;;;20.40;63.80;;;;;;4927869;29;20154;-70
2022/09/09 10:02:43;;;;;;;6.50;2.17;;;20.40;63.90;;;;;;4947994;28;20048;-70
2022/09/09 10:05:24;;;;;;;5.93;1.92;;;20.40;63.60;;;;;;4931559;29;20108;-70
2022/09/09 10:08:10;;;;;;;11.63;3.22;;;20.50;63.00;;;;;;4931354;29;20040;-70
2022/09/09 10:11:10;;;;;;;4.53;2.08;;;20.50;62.50;;;;;;4930662;29;20511;-70
2022/09/09 10:13:36;;;;;;;6.53;1.90;;;20.50;62.40;;;;;;4931259;29;20124;-71
2022/09/09 10:16:19;;;;;;;5.38;2.22;;;20.50;62.00;;;;;;4946612;28;20042;-72
2022/09/09 10:19:01;;;;;;;6.90;1.50;;;20.50;61.70;;;;;;4929845;29;20107;-71
2022/09/09 10:21:32;;;;;;;7.45;2.05;;;20.50;62.20;;;;;;4946817;28;20134;-71
2022/09/09 10:24:30;;;;;;;9.20;1.90;;;20.50;62.00;;;;;;4914824;29;20042;-71
2022/09/09 10:27:22;;;;;;;6.90;1.55;;;20.50;61.90;;;;;;4930192;29;20483;-71
2022/09/09 10:30:14;;;;;;;4.70;1.70;;;20.50;62.00;;;;;;4945148;29;20047;-70
2022/09/09 10:33:05;;;;;;;8.80;2.30;;;20.60;62.50;;;;;;4929736;29;20508;-70
2022/09/09 10:36:09;;;;;;;5.57;1.88;;;20.60;61.90;;;;;;4930834;29;20040;-70
2022/09/09 10:38:44;;;;;;;7.07;1.77;;;20.60;61.60;;;;;;4931021;29;20094;-70
2022/09/09 10:41:55;;;;;;;5.70;2.40;;;20.60;61.70;;;;;;4929391;29;20051;-70
2022/09/09 10:44:50;;;;;;;7.15;1.92;;;20.60;61.70;;;;;;4927359;29;20142;-70
2022/09/09 10:47:35;;;;;;;6.43;2.38;;;20.60;61.40;;;;;;4931537;29;20093;-70
2022/09/09 10:50:19;;;;;;;10.48;1.85;;;20.60;61.70;;;;;;4945222;29;20099;-70
2022/09/09 10:53:06;;;;;;;6.75;1.73;;;20.60;61.50;;;;;;4942995;29;20064;-71
2022/09/09 10:55:45;;;;;;;4.40;1.63;;;20.60;61.60;;;;;;4923589;29;20546;-70
2022/09/09 10:58:17;;;;;;;7.85;2.72;;;20.60;61.70;;;;;;4925202;29;20494;-70
2022/09/09 11:00:53;;;;;;;7.90;1.88;;;20.60;62.10;;;;;;4939472;28;20051;-71
2022/09/09 11:03:41;;;;;;;7.18;1.80;;;20.60;62.40;;;;;;4926127;29;20048;-70
2022/09/09 11:06:17;;;;;;;5.70;1.67;;;20.60;61.50;;;;;;4928883;29;20039;-72
2022/09/09 11:08:42;;;;;;;6.57;1.90;;;20.60;61.40;;;;;;4943212;29;20100;-72
2022/09/09 11:11:36;;;;;;;7.20;1.80;;;20.50;61.20;;;;;;4925554;29;20052;-71
2022/09/09 11:14:11;;;;;;;5.97;1.77;;;20.50;61.10;;;;;;4908874;29;20373;-71
2022/09/09 11:17:00;;;;;;;10.15;2.60;;;20.50;61.40;;;;;;4924563;29;20052;-71
2022/09/09 11:19:39;;;;;;;6.13;1.85;;;20.50;61.20;;;;;;4939649;28;20160;-71
2022/09/09 11:22:27;;;;;;;4.43;1.42;;;20.40;61.20;;;;;;4926432;29;20047;-72
2022/09/09 11:25:00;;;;;;;8.32;1.70;;;20.40;61.60;;;;;;4926891;29;20040;-71
2022/09/09 11:27:36;;;;;;;5.65;2.10;;;20.50;62.20;;;;;;4925044;29;20717;-71
2022/09/09 11:30:21;;;;;;;6.65;1.40;;;20.50;61.70;;;;;;4942658;28;20055;-71
2022/09/09 11:33:24;;;;;;;10.93;2.08;;;20.50;60.80;;;;;;4926062;29;20062;-71
2022/09/09 11:35:52;;;;;;;7.63;1.65;;;20.50;61.10;;;;;;4923373;29;20051;-71
2022/09/09 11:38:37;;;;;;;5.65;1.90;;;20.50;61.10;;;;;;4944103;28;20032;-71
2022/09/09 11:41:07;;;;;;;7.55;2.15;;;20.50;60.60;;;;;;4928136;29;20044;-71
2022/09/09 11:43:41;;;;;;;5.85;1.58;;;20.50;61.20;;;;;;4928979;29;20056;-71
2022/09/09 11:46:08;;;;;;;8.50;2.10;;;20.50;60.80;;;;;;4931992;29;20084;-71
2022/09/09 11:48:37;;;;;;;5.22;1.50;;;20.50;60.60;;;;;;4917402;29;20056;-70
2022/09/09 11:51:12;;;;;;;8.73;2.00;;;20.50;60.40;;;;;;4931907;29;20484;-69
2022/09/09 11:54:01;;;;;;;6.28;1.63;;;20.60;61.00;;;;;;4915800;29;20059;-71
2022/09/09 11:56:31;;;;;;;5.70;1.58;;;20.70;60.20;;;;;;4931155;29;20054;-71
2022/09/09 11:59:01;;;;;;;4.68;1.45;;;20.80;60.20;;;;;;4921333;28;20040;-70
2022/09/09 12:01:44;;;;;;;6.13;1.65;;;20.80;59.40;;;;;;4933690;29;20043;-71
2022/09/09 12:04:26;;;;;;;7.10;1.40;;;20.80;58.60;;;;;;4933857;29;20044;-70
2022/09/09 12:07:09;;;;;;;4.78;1.40;;;20.80;58.40;;;;;;4932452;29;20048;-70
2022/09/09 12:09:57;;;;;;;10.52;2.53;;;20.70;58.70;;;;;;4908087;29;20127;-71
2022/09/09 12:12:29;;;;;;;6.10;1.88;;;20.70;59.10;;;;;;4926162;29;20048;-70
2022/09/09 12:14:59;;;;;;;7.18;2.25;;;20.70;58.70;;;;;;4918824;29;20044;-71
2022/09/09 12:17:28;;;;;;;6.00;1.45;;;20.80;58.60;;;;;;4918889;29;20051;-70
2022/09/09 12:20:09;;;;;;;7.55;1.67;;;20.70;58.50;;;;;;4919908;29;20111;-70
2022/09/09 12:22:50;;;;;;;5.82;1.67;;;20.70;58.50;;;;;;4909956;29;20067;-64
2022/09/09 12:25:35;;;;;;;6.35;1.80;;;20.70;58.50;;;;;;4929362;29;20130;-64
2022/09/09 12:28:18;;;;;;;5.95;1.58;;;20.60;58.80;;;;;;4932488;29;20070;-65
2022/09/09 12:31:05;;;;;;;9.23;2.00;;;20.50;59.80;;;;;;4933644;29;20139;-64
2022/09/09 12:33:36;;;;;;;5.32;1.67;;;20.50;61.40;;;;;;4947802;28;20495;-64
2022/09/09 12:36:05;;;;;;;5.80;1.80;;;20.50;62.30;;;;;;4933556;29;20508;-64
2022/09/09 12:38:41;;;;;;;4.07;1.60;;;20.50;63.30;;;;;;4948532;29;20054;-64
2022/09/09 12:41:22;;;;;;;6.30;1.75;;;20.50;64.20;;;;;;4932199;29;20047;-64
2022/09/09 12:43:48;;;;;;;4.22;1.75;;;20.50;64.40;;;;;;4933717;29;20065;-64
2022/09/09 12:46:32;;;;;;;5.32;1.88;;;20.50;64.20;;;;;;4950566;28;20554;-64
2022/09/09 12:48:58;;;;;;;4.95;1.50;;;20.50;62.80;;;;;;4934002;29;20168;-64
2022/09/09 12:51:31;;;;;;;5.57;1.38;;;20.50;61.10;;;;;;4956763;28;20069;-64
2022/09/09 12:53:57;;;;;;;4.80;1.50;;;20.40;61.40;;;;;;4944083;29;20111;-64
2022/09/09 12:56:30;;;;;;;7.15;1.40;;;20.40;61.30;;;;;;4936871;29;20048;-64
2022/09/09 12:58:58;;;;;;;4.85;1.67;;;20.40;60.90;;;;;;4933498;29;20039;-64
2022/09/09 13:01:28;;;;;;;6.30;1.48;;;20.30;61.20;;;;;;4934629;29;20075;-64
2022/09/09 13:03:54;;;;;;;8.68;1.50;;;20.30;61.00;;;;;;4934793;29;20145;-64
2022/09/09 13:06:31;;;;;;;7.25;1.92;;;20.30;61.00;;;;;;4936604;29;20039;-64
2022/09/09 13:09:00;;;;;;;4.53;1.85;;;20.20;61.20;;;;;;4925039;29;20083;-64
2022/09/09 13:11:30;;;;;;;3.55;1.10;;;20.10;61.90;;;;;;4921315;29;20136;-64